FSIA/SEZ METAR and TAF weather

Enter ICAO airport designator
Station Type Date Time Source
FSIA METAR 2023/09/21 19:00 UTC NOAA

FSIA 211900Z 14012KT 9999 SCT020 28/24 Q1012 NOSIG


Station Type Date Time Source
FSIA Decoded METAR 2023/09/21 19:00 UTC NOAA

Seychelles Inter-National Airport, Seychelles (FSIA) 04-40S 055-31E 3M
Sep 21, 2023 - 03:00 PM EDT / 2023.09.21 1900 UTC
Wind: from the SE (140 degrees) at 14 MPH (12 KT):0
Visibility: greater than 7 mile(s):0
Sky conditions: partly cloudy
Temperature: 82 F (28 C)
Dew Point: 75 F (24 C)
Relative Humidity: 78%
Pressure (altimeter): 29.88 in. Hg (1012 hPa)
ob: FSIA 211900Z 14012KT 9999 SCT020 28/24 Q1012 NOSIG
cycle: 19

Station Type Date Time Source
FSIA TAF 2023/09/21 18:15 UTC NOAA

TAF TAF FSIA 211701Z 2118/2218 13013KT 9999 SCT020

Example: see airport list